EGBJ/GLO METAR and TAF weather

Enter ICAO airport designator
Station Type Date Time Source
EGBJ METAR 2018/10/16 17:50 UTC NOAA

EGBJ 161750Z 21004KT 9999 FEW020 14/12 Q1015


Station Type Date Time Source
EGBJ Decoded METAR 2018/10/16 17:50 UTC NOAA

Staverton Private , United Kingdom (EGBJ) 51-54N 002-10W
Oct 16, 2018 - 01:50 PM EDT / 2018.10.16 1750 UTC
Wind: from the SSW (210 degrees) at 5 MPH (4 KT):0
Visibility: greater than 7 mile(s):0
Sky conditions: mostly clear
Temperature: 57 F (14 C)
Dew Point: 53 F (12 C)
Relative Humidity: 87%
Pressure (altimeter): 29.97 in. Hg (1015 hPa)
ob: EGBJ 161750Z 21004KT 9999 FEW020 14/12 Q1015
cycle: 18

Station Type Date Time Source
EGBJ TAF UTC NOAA

Error!


Example: see airport list